Time;durP1;ratioP1;P1;durP2;ratioP2;P2;SDS_P1;SDS_P2;PMS_P1;PMS_P2;Temp;Humidity;BMP_temperature;BMP_pressure;BME280_temperature;BME280_humidity;BME280_pressure;Samples;Min_cycle;Max_cycle;Signal;HPM_P1;HPM_P2
2021/12/13 00:01:36;;;;;;;23.63;10.90;;;;;;;-0.11;100.00;101008.41;31279815;28;20495;-77
2021/12/13 00:16:42;;;;;;;23.37;9.60;;;;;;;-0.04;100.00;101024.69;31324432;28;20053;-77
2021/12/13 00:31:47;;;;;;;25.05;9.23;;;;;;;-0.13;100.00;100981.25;31292435;28;20053;-76
2021/12/13 00:46:52;;;;;;;16.93;9.93;;;;;;;-0.13;100.00;100978.59;31293136;28;20406;-77
2021/12/13 01:02:07;;;;;;;16.37;9.53;;;;;;;-0.19;100.00;100961.19;31298368;28;20041;-78
2021/12/13 01:17:28;;;;;;;24.30;10.30;;;;;;;-0.18;100.00;100965.44;31298683;28;20055;-77
2021/12/13 01:32:39;;;;;;;21.87;10.00;;;;;;;-0.16;100.00;100973.88;31272544;28;20132;-77
2021/12/13 01:47:44;;;;;;;21.63;11.03;;;;;;;-0.23;100.00;100969.06;31297088;28;20045;-77
2021/12/13 02:02:50;;;;;;;15.47;8.40;;;;;;;-0.24;100.00;100964.06;31279701;28;20517;-76
2021/12/13 02:17:53;;;;;;;27.30;11.53;;;;;;;-0.39;100.00;100942.19;31280495;28;20128;-77
2021/12/13 02:32:55;;;;;;;26.17;10.50;;;;;;;-0.30;100.00;100942.13;31275526;28;20075;-77
2021/12/13 02:48:08;;;;;;;31.83;13.70;;;;;;;-0.35;100.00;100940.44;31300136;28;20052;-77
2021/12/13 03:03:13;;;;;;;32.43;13.70;;;;;;;-0.40;100.00;100911.28;31314430;28;20048;-76
2021/12/13 03:18:24;;;;;;;31.33;13.57;;;;;;;-0.31;100.00;100934.44;31362691;28;20391;-77
2021/12/13 03:34:00;;;;;;;27.13;12.37;;;;;;;-0.29;100.00;100942.91;31290423;28;20521;-78
2021/12/13 03:49:06;;;;;;;27.60;14.23;;;;;;;-0.35;100.00;100924.41;31304598;28;20059;-77
2021/12/13 04:04:22;;;;;;;31.63;13.77;;;;;;;-0.35;100.00;100913.75;31291611;28;20056;-77
2021/12/13 04:19:25;;;;;;;24.73;11.67;;;;;;;-0.39;100.00;100891.50;31313563;28;20059;-77
2021/12/13 04:34:28;;;;;;;32.83;14.23;;;;;;;-0.39;100.00;100923.50;31280810;28;20075;-76
2021/12/13 04:49:53;;;;;;;31.00;14.90;;;;;;;-0.37;100.00;100915.19;31291307;28;20131;-76
2021/12/13 05:04:57;;;;;;;36.87;15.13;;;;;;;-0.32;100.00;100900.88;31295058;28;20052;-77
2021/12/13 05:20:17;;;;;;;38.33;14.80;;;;;;;-0.31;100.00;100905.09;31304980;28;20049;-77
2021/12/13 05:35:23;;;;;;;35.40;14.90;;;;;;;-0.23;100.00;100918.34;31277703;28;20045;-77
2021/12/13 05:50:28;;;;;;;;;;;;;;;-0.17;100.00;100950.97;31274806;28;20055;-78
2021/12/13 06:05:36;;;;;;;35.63;14.70;;;;;;;-0.12;100.00;100942.78;31278439;28;19927;-77
2021/12/13 06:21:06;;;;;;;33.87;14.47;;;;;;;-0.12;100.00;100937.44;31336823;28;20137;-81
2021/12/13 06:36:08;;;;;;;32.93;14.90;;;;;;;-0.08;100.00;100957.03;31302136;28;20071;-77
2021/12/13 06:51:15;;;;;;;40.63;14.40;;;;;;;-0.04;100.00;100929.38;31305128;28;20041;-78
2021/12/13 07:06:19;;;;;;;36.00;14.00;;;;;;;-0.03;100.00;100930.16;31326625;28;20045;-77
2021/12/13 07:21:34;;;;;;;31.67;13.33;;;;;;;0.07;100.00;100928.97;31330628;28;20059;-77
2021/12/13 07:36:36;;;;;;;34.67;14.17;;;;;;;0.11;100.00;100938.66;31352894;28;20065;-78
2021/12/13 07:51:52;;;;;;;34.83;14.53;;;;;;;0.24;100.00;100928.81;31349027;28;20074;-87
2021/12/13 08:07:10;;;;;;;28.13;12.93;;;;;;;0.43;100.00;100942.47;31317424;28;20586;-85
2021/12/13 08:22:16;;;;;;;31.90;13.03;;;;;;;0.58;100.00;100925.03;31332894;28;20128;-84
2021/12/13 08:37:34;;;;;;;33.03;13.63;;;;;;;0.60;100.00;100933.50;31315204;28;20099;-85
2021/12/13 08:52:41;;;;;;;37.27;14.23;;;;;;;0.74;100.00;100912.56;31303680;28;20140;-85
2021/12/13 09:08:09;;;;;;;40.43;14.57;;;;;;;1.15;100.00;100882.22;31287403;28;20044;-86
2021/12/13 09:23:24;;;;;;;30.33;14.20;;;;;;;1.39;100.00;100884.06;31304222;28;20132;-84
2021/12/13 09:38:28;;;;;;;37.67;16.00;;;;;;;1.36;100.00;100871.38;31306125;28;20128;-85
2021/12/13 09:53:34;;;;;;;30.77;13.50;;;;;;;1.40;100.00;100845.50;31351035;28;20049;-85
2021/12/13 10:08:45;;;;;;;29.27;12.60;;;;;;;1.41;100.00;100843.59;31292654;28;20430;-84
2021/12/13 10:23:53;;;;;;;33.27;14.40;;;;;;;1.52;100.00;100831.31;31306024;28;20041;-84
2021/12/13 10:39:12;;;;;;;33.83;12.43;;;;;;;1.54;100.00;100824.50;31300973;28;20057;-86
2021/12/13 10:54:43;;;;;;;28.80;12.93;;;;;;;1.52;100.00;100834.75;31321687;28;20105;-85
2021/12/13 11:09:46;;;;;;;24.83;11.50;;;;;;;1.63;100.00;100811.75;31322971;28;20587;-86
2021/12/13 11:24:51;;;;;;;24.30;11.07;;;;;;;1.63;100.00;100817.13;31319030;28;20055;-86
2021/12/13 11:40:37;;;;;;;28.13;10.90;;;;;;;1.46;100.00;100814.69;31355388;28;20053;-84
2021/12/13 11:56:16;;;;;;;26.93;8.00;;;;;;;1.36;100.00;100783.88;31386120;28;20069;-84
2021/12/13 12:11:46;;;;;;;27.83;10.77;;;;;;;1.56;100.00;100794.72;31324033;28;20087;-84
2021/12/13 12:27:06;;;;;;;31.67;11.50;;;;;;;1.52;100.00;100794.63;31327580;28;20056;-85
2021/12/13 12:42:24;;;;;;;19.40;9.00;;;;;;;1.49;100.00;100784.59;31284582;28;20060;-84
2021/12/13 12:57:31;;;;;;;22.77;8.47;;;;;;;1.46;100.00;100787.94;31334849;28;20145;-85
2021/12/13 13:12:37;;;;;;;36.83;11.23;;;;;;;1.63;100.00;100784.22;31357802;28;20081;-85
2021/12/13 13:27:39;;;;;;;24.83;9.23;;;;;;;1.66;100.00;100805.69;31336200;28;20059;-85
2021/12/13 13:42:58;;;;;;;20.50;8.87;;;;;;;1.55;100.00;100804.66;31303910;28;20294;-86
2021/12/13 13:58:08;;;;;;;16.63;8.60;;;;;;;1.88;100.00;100806.31;31330541;28;20449;-85
2021/12/13 14:13:10;;;;;;;24.03;8.70;;;;;;;1.91;100.00;100809.06;31363405;28;20060;-88
2021/12/13 14:28:38;;;;;;;23.00;10.07;;;;;;;1.92;100.00;100797.22;31315549;28;20049;-85
2021/12/13 14:43:47;;;;;;;25.87;11.13;;;;;;;2.02;100.00;100799.41;31362793;28;20053;-88
2021/12/13 14:58:58;;;;;;;26.97;11.90;;;;;;;1.92;100.00;100815.19;31330808;28;20049;-85
2021/12/13 15:14:06;;;;;;;17.73;9.20;;;;;;;1.76;100.00;100811.69;31370211;28;20091;-84
2021/12/13 15:29:25;;;;;;;19.03;9.43;;;;;;;1.49;100.00;100848.81;31333518;28;20061;-85
2021/12/13 15:44:30;;;;;;;;;;;;;;;1.46;100.00;100812.03;31284832;28;20089;-85
2021/12/13 15:59:35;;;;;;;24.30;11.80;;;;;;;1.52;100.00;100802.66;31373390;28;19944;-85
2021/12/13 16:14:57;;;;;;;27.17;12.20;;;;;;;1.53;100.00;100817.59;31368256;28;20049;-85
2021/12/13 16:29:59;;;;;;;36.13;15.33;;;;;;;1.54;100.00;100813.78;31361011;28;20053;-87
2021/12/13 16:45:06;;;;;;;27.50;13.10;;;;;;;1.55;100.00;100803.88;31362131;28;20440;-88
2021/12/13 17:00:26;;;;;;;29.60;14.17;;;;;;;1.56;100.00;100826.84;31374415;28;20072;-86
2021/12/13 17:15:50;;;;;;;39.50;15.20;;;;;;;1.48;100.00;100868.66;31315136;28;20057;-83
2021/12/13 17:30:54;;;;;;;33.43;14.47;;;;;;;1.54;100.00;100869.97;31317717;28;20064;-85
2021/12/13 17:46:16;;;;;;;33.97;12.27;;;;;;;1.67;100.00;100855.44;31368585;28;20044;-85
2021/12/13 18:01:37;;;;;;;28.77;12.20;;;;;;;1.74;100.00;100848.72;31372947;28;20052;-88
2021/12/13 18:16:41;;;;;;;29.57;12.33;;;;;;;1.80;100.00;100817.94;31308962;28;20053;-84
2021/12/13 18:31:50;;;;;;;22.50;11.60;;;;;;;1.78;100.00;100825.53;31346257;28;20056;-82
2021/12/13 18:47:06;;;;;;;21.63;11.53;;;;;;;1.79;100.00;100835.91;31366211;28;20089;-79
2021/12/13 19:02:08;;;;;;;37.43;13.57;;;;;;;1.84;100.00;100805.44;31324830;28;20046;-83
2021/12/13 19:17:19;;;;;;;24.67;12.50;;;;;;;1.89;100.00;100840.00;31305470;28;20094;-81
2021/12/13 19:32:24;;;;;;;33.93;14.10;;;;;;;1.97;100.00;100820.31;31357860;28;20470;-83
2021/12/13 19:47:36;;;;;;;53.47;20.00;;;;;;;2.02;100.00;100825.41;31363345;28;20131;-81
2021/12/13 20:02:44;;;;;;;40.57;15.90;;;;;;;2.07;100.00;100830.53;31339108;28;20462;-83
2021/12/13 20:17:53;;;;;;;25.90;12.80;;;;;;;2.11;100.00;100809.97;31386791;28;20141;-85
2021/12/13 20:33:06;;;;;;;25.40;13.10;;;;;;;2.23;100.00;100823.28;31329574;28;20521;-85
2021/12/13 20:48:16;;;;;;;28.67;12.83;;;;;;;2.25;100.00;100815.69;31394872;28;20041;-81
2021/12/13 21:03:51;;;;;;;23.30;9.63;;;;;;;2.39;100.00;100778.50;31346660;28;21067;-78
2021/12/13 21:19:19;;;;;;;23.33;10.63;;;;;;;2.55;100.00;100805.31;31319822;28;20048;-83
2021/12/13 21:34:35;;;;;;;26.20;10.27;;;;;;;2.62;100.00;100791.28;31297398;28;20060;-82
2021/12/13 21:49:47;;;;;;;19.87;9.60;;;;;;;2.75;100.00;100795.44;31299319;28;20053;-82
2021/12/13 22:04:55;;;;;;;18.93;9.83;;;;;;;2.63;100.00;100815.06;31312136;28;20502;-82
2021/12/13 22:20:11;;;;;;;20.93;11.00;;;;;;;2.69;100.00;100826.31;31306870;28;20041;-82
2021/12/13 22:35:20;;;;;;;21.43;10.27;;;;;;;2.81;100.00;100828.91;31318558;28;20060;-81
2021/12/13 22:50:30;;;;;;;28.63;11.43;;;;;;;2.79;100.00;100843.78;31340131;28;20125;-81
2021/12/13 23:05:33;;;;;;;18.10;8.33;;;;;;;2.79;100.00;100849.16;31319556;28;20056;-82
2021/12/13 23:20:36;;;;;;;16.20;8.23;;;;;;;2.76;100.00;100823.81;31336234;28;20111;-81
2021/12/13 23:35:51;;;;;;;23.70;8.80;;;;;;;2.66;100.00;100840.41;31320828;28;20060;-82
2021/12/13 23:51:09;;;;;;;18.10;8.23;;;;;;;2.68;100.00;100830.13;31322196;28;20131;-82
